createdAt,value
2023-02-14T00:01:01.592Z,5.20
2023-02-14T00:03:28.344Z,5.30
2023-02-14T00:05:55.117Z,5.20
2023-02-14T00:08:28.601Z,5.30
2023-02-14T00:10:55.355Z,5.30
2023-02-14T00:13:28.591Z,5.20
2023-02-14T00:16:02.618Z,5.30
2023-02-14T00:18:48.002Z,5.20
2023-02-14T00:21:21.640Z,5.20
2023-02-14T00:23:48.490Z,5.20
2023-02-14T00:26:21.617Z,5.20
2023-02-14T00:28:48.487Z,5.20
2023-02-14T00:31:21.810Z,5.10
2023-02-14T00:33:48.671Z,5.10
2023-02-14T00:36:23.671Z,5.10
2023-02-14T00:38:50.456Z,5.10
2023-02-14T00:41:27.676Z,5.10
2023-02-14T00:43:54.532Z,5.00
2023-02-14T00:46:29.617Z,5.00
2023-02-14T00:48:56.742Z,5.00
2023-02-14T00:51:30.621Z,5.00
2023-02-14T00:53:57.729Z,5.00
2023-02-14T00:56:30.655Z,4.90
2023-02-14T00:58:57.552Z,4.90
2023-02-14T01:01:24.587Z,4.90
2023-02-14T01:03:57.645Z,4.90
2023-02-14T01:06:31.711Z,4.90
2023-02-14T01:09:04.628Z,4.80
2023-02-14T01:11:31.431Z,4.80
2023-02-14T01:14:05.648Z,4.80
2023-02-14T01:16:32.576Z,4.80
2023-02-14T01:19:07.710Z,4.80
2023-02-14T01:21:35.571Z,4.80
2023-02-14T01:24:05.720Z,4.80
2023-02-14T01:26:39.698Z,4.80
2023-02-14T01:29:06.914Z,4.90
2023-02-14T01:31:41.777Z,4.80
2023-02-14T01:34:14.696Z,4.80
2023-02-14T01:36:47.719Z,4.80
2023-02-14T01:39:15.741Z,4.80
2023-02-14T01:41:51.712Z,4.70
2023-02-14T01:44:24.716Z,4.70
2023-02-14T01:46:57.718Z,4.60
2023-02-14T01:49:35.707Z,4.60
2023-02-14T01:52:23.773Z,4.60
2023-02-14T01:55:08.694Z,4.60
2023-02-14T01:57:49.744Z,4.60
2023-02-14T02:00:41.774Z,4.60
2023-02-14T02:03:09.184Z,4.60
2023-02-14T02:05:47.831Z,4.50
2023-02-14T02:08:14.988Z,4.50
2023-02-14T02:10:48.783Z,4.50
2023-02-14T02:13:21.299Z,4.50
2023-02-14T02:16:32.829Z,4.50
2023-02-14T02:19:53.759Z,4.50
2023-02-14T02:22:32.536Z,4.60
2023-02-14T02:25:13.765Z,4.50
2023-02-14T02:28:24.853Z,4.50
2023-02-14T02:30:57.776Z,4.50
2023-02-14T02:33:52.800Z,4.50
2023-02-14T02:36:52.141Z,4.50
2023-02-14T02:39:43.759Z,4.50
2023-02-14T02:42:26.837Z,4.50
2023-02-14T02:45:14.825Z,4.50
2023-02-14T02:47:53.646Z,4.50
2023-02-14T02:51:04.782Z,4.50
2023-02-14T02:53:50.795Z,4.50
2023-02-14T02:56:50.984Z,4.50
2023-02-14T02:59:24.336Z,4.40
2023-02-14T03:02:01.855Z,4.40
2023-02-14T03:05:02.903Z,4.40
2023-02-14T03:07:47.859Z,4.40
2023-02-14T03:10:24.270Z,4.40
2023-02-14T03:13:15.911Z,4.40
2023-02-14T03:16:30.371Z,4.40
2023-02-14T03:20:03.910Z,4.40
2023-02-14T03:23:10.873Z,4.30
2023-02-14T03:25:53.887Z,4.30
2023-02-14T03:28:44.896Z,4.30
2023-02-14T03:31:45.970Z,4.30
2023-02-14T03:34:28.267Z,4.30
2023-02-14T03:37:08.001Z,4.30
2023-02-14T03:39:45.926Z,4.30
2023-02-14T03:42:49.937Z,4.30
2023-02-14T03:45:36.940Z,4.30
2023-02-14T03:48:15.962Z,4.30
2023-02-14T03:50:47.833Z,4.20
2023-02-14T03:53:25.944Z,4.20
2023-02-14T03:56:22.348Z,4.20
2023-02-14T03:59:00.970Z,4.20
2023-02-14T04:01:34.870Z,4.20
2023-02-14T04:04:10.930Z,4.10
2023-02-14T04:06:37.713Z,4.10
2023-02-14T04:09:11.174Z,4.10
2023-02-14T04:11:38.628Z,4.00
2023-02-14T04:14:12.953Z,4.00
2023-02-14T04:16:58.360Z,4.00
2023-02-14T04:19:32.017Z,4.00
2023-02-14T04:21:58.820Z,4.00
2023-02-14T04:24:32.029Z,4.00
2023-02-14T04:27:16.641Z,4.00
2023-02-14T04:29:56.060Z,4.00
2023-02-14T04:32:30.075Z,4.00
2023-02-14T04:34:56.938Z,4.00
2023-02-14T04:37:36.022Z,3.90
2023-02-14T04:40:10.114Z,3.90
2023-02-14T04:42:36.891Z,3.90
2023-02-14T04:45:10.013Z,3.90
2023-02-14T04:47:44.072Z,3.90
2023-02-14T04:50:11.137Z,3.80
2023-02-14T04:52:37.960Z,3.80
2023-02-14T04:55:13.028Z,3.80
2023-02-14T04:57:47.105Z,3.80
2023-02-14T05:00:14.900Z,3.80
2023-02-14T05:02:48.037Z,3.80
2023-02-14T05:05:23.072Z,3.80
2023-02-14T05:07:49.845Z,3.80
2023-02-14T05:10:16.781Z,3.70
2023-02-14T05:12:50.087Z,3.70
2023-02-14T05:15:16.936Z,3.70
2023-02-14T05:17:50.059Z,3.70
2023-02-14T05:20:24.047Z,3.70
2023-02-14T05:22:57.013Z,3.60
2023-02-14T05:25:30.131Z,3.60
2023-02-14T05:28:04.052Z,3.60
2023-02-14T05:30:37.267Z,3.60
2023-02-14T05:33:10.852Z,3.60
2023-02-14T05:35:44.072Z,3.60
2023-02-14T05:38:20.102Z,3.50
2023-02-14T05:40:47.057Z,3.50
2023-02-14T05:43:13.913Z,3.50
2023-02-14T05:45:47.164Z,3.50
2023-02-14T05:48:14.175Z,3.50
2023-02-14T05:50:49.123Z,3.50
2023-02-14T05:53:16.379Z,3.50
2023-02-14T05:55:50.108Z,3.50
2023-02-14T05:58:16.885Z,3.50
2023-02-14T06:00:50.104Z,3.40
2023-02-14T06:03:17.040Z,3.40
2023-02-14T06:05:55.128Z,3.40
2023-02-14T06:08:21.925Z,3.30
2023-02-14T06:10:55.205Z,3.30
2023-02-14T06:13:22.558Z,3.30
2023-02-14T06:15:49.305Z,3.30
2023-02-14T06:18:22.178Z,3.30
2023-02-14T06:20:48.990Z,3.20
2023-02-14T06:23:15.837Z,3.20
2023-02-14T06:25:49.168Z,3.20
2023-02-14T06:28:16.074Z,3.20
2023-02-14T06:30:49.240Z,3.10
2023-02-14T06:33:22.172Z,3.10
2023-02-14T06:35:55.221Z,3.10
2023-02-14T06:38:28.126Z,3.10
2023-02-14T06:40:54.914Z,3.10
2023-02-14T06:43:28.166Z,3.00
2023-02-14T06:45:56.622Z,3.00
2023-02-14T06:48:30.174Z,3.00
2023-02-14T06:50:57.252Z,3.00
2023-02-14T06:53:31.195Z,3.00
2023-02-14T06:55:58.204Z,3.00
2023-02-14T06:58:31.177Z,3.00
2023-02-14T07:01:05.278Z,3.00
2023-02-14T07:03:41.198Z,2.90
2023-02-14T07:06:08.104Z,3.00
2023-02-14T07:08:41.234Z,3.00
2023-02-14T07:11:08.184Z,3.00
2023-02-14T07:13:41.226Z,3.00
2023-02-14T07:16:08.080Z,3.00
2023-02-14T07:18:34.947Z,3.00
2023-02-14T07:21:08.285Z,3.00
2023-02-14T07:23:42.232Z,3.00
2023-02-14T07:26:09.148Z,3.10
2023-02-14T07:28:44.311Z,3.10
2023-02-14T07:31:19.341Z,3.10
2023-02-14T07:33:46.219Z,3.10
2023-02-14T07:36:19.247Z,3.10
2023-02-14T07:38:46.098Z,3.20
2023-02-14T07:41:19.298Z,3.20
2023-02-14T07:43:52.272Z,3.20
2023-02-14T07:46:19.318Z,3.20
2023-02-14T07:48:46.190Z,3.30
2023-02-14T07:51:19.357Z,3.20
2023-02-14T07:53:46.190Z,3.30
2023-02-14T07:56:12.989Z,3.30
2023-02-14T07:58:53.331Z,3.30
2023-02-14T08:01:21.108Z,3.40
2023-02-14T08:03:58.275Z,3.40
2023-02-14T08:06:27.742Z,3.50
2023-02-14T08:08:54.562Z,3.50
2023-02-14T08:11:46.325Z,3.50
2023-02-14T08:14:13.199Z,3.60
2023-02-14T08:16:40.146Z,3.70
2023-02-14T08:19:13.420Z,3.70
2023-02-14T08:21:40.276Z,3.80
2023-02-14T08:24:13.384Z,3.80
2023-02-14T08:26:40.185Z,3.90
2023-02-14T08:29:14.994Z,3.90
2023-02-14T08:31:43.203Z,3.90
2023-02-14T08:34:16.637Z,4.00
2023-02-14T08:36:50.383Z,4.00
2023-02-14T08:39:17.202Z,4.10
2023-02-14T08:41:50.349Z,4.10
2023-02-14T08:44:17.157Z,4.20
2023-02-14T08:46:43.977Z,4.20
2023-02-14T08:49:17.566Z,4.30
2023-02-14T08:51:51.371Z,4.30
2023-02-14T08:54:18.164Z,4.40
2023-02-14T08:56:51.416Z,4.40
2023-02-14T08:59:18.224Z,4.50
2023-02-14T09:01:51.417Z,4.60
2023-02-14T09:04:24.435Z,4.70
2023-02-14T09:06:57.464Z,4.70
2023-02-14T09:09:24.266Z,4.80
2023-02-14T09:11:57.453Z,4.90
2023-02-14T09:14:32.177Z,5.00
2023-02-14T09:17:08.466Z,5.10
2023-02-14T09:19:36.996Z,5.20
2023-02-14T09:22:05.344Z,5.40
2023-02-14T09:24:39.684Z,5.50
2023-02-14T09:27:07.140Z,5.60
2023-02-14T09:29:34.653Z,5.70
2023-02-14T09:32:09.513Z,5.80
2023-02-14T09:34:45.432Z,5.90
2023-02-14T09:37:38.458Z,6.00
2023-02-14T09:40:06.013Z,6.20
2023-02-14T09:43:05.491Z,6.30
2023-02-14T09:45:40.530Z,6.30
2023-02-14T09:48:37.522Z,6.50
2023-02-14T09:51:21.441Z,6.60
2023-02-14T09:53:56.974Z,6.70
2023-02-14T09:56:51.326Z,6.80
2023-02-14T09:59:50.345Z,6.90
2023-02-14T10:02:23.790Z,7.10
2023-02-14T10:05:13.278Z,7.20
2023-02-14T10:08:31.536Z,7.30
2023-02-14T10:11:08.846Z,7.40
2023-02-14T10:13:58.716Z,7.50
2023-02-14T10:16:40.519Z,7.60
2023-02-14T10:19:19.487Z,7.70
2023-02-14T10:21:56.728Z,7.80
2023-02-14T10:24:48.695Z,7.90
2023-02-14T10:27:46.568Z,8.00
2023-02-14T10:30:30.666Z,8.10
2023-02-14T10:33:11.796Z,8.20
2023-02-14T10:35:49.554Z,8.40
2023-02-14T10:38:49.580Z,8.50
2023-02-14T10:41:35.294Z,8.60
2023-02-14T10:44:32.587Z,8.70
2023-02-14T10:47:02.212Z,8.80
2023-02-14T10:49:44.730Z,8.90
2023-02-14T10:52:18.697Z,9.10
2023-02-14T10:55:02.562Z,9.30
2023-02-14T10:57:33.974Z,9.40
2023-02-14T11:00:11.784Z,9.50
2023-02-14T11:02:46.151Z,9.50
2023-02-14T11:05:30.598Z,9.60
2023-02-14T11:07:59.100Z,9.70
2023-02-14T11:10:39.605Z,9.70
2023-02-14T11:13:43.594Z,9.80
2023-02-14T11:16:13.478Z,9.90
2023-02-14T11:18:47.897Z,10.00
2023-02-14T11:21:17.876Z,10.10
2023-02-14T11:23:57.628Z,10.10
2023-02-14T11:26:28.050Z,10.20
2023-02-14T11:29:07.611Z,10.30
2023-02-14T11:31:37.745Z,10.20
2023-02-14T11:34:22.664Z,10.20
2023-02-14T11:36:55.612Z,10.30
2023-02-14T11:39:42.641Z,10.30
2023-02-14T11:42:19.666Z,10.40
2023-02-14T11:45:02.625Z,10.70
2023-02-14T11:47:32.358Z,10.80
2023-02-14T11:50:12.693Z,10.90
2023-02-14T11:52:52.012Z,11.10
2023-02-14T11:55:35.642Z,11.20
2023-02-14T11:58:05.872Z,11.30
2023-02-14T12:00:40.680Z,11.40
2023-02-14T12:03:18.580Z,11.50
2023-02-14T12:05:55.702Z,11.70
2023-02-14T12:08:28.392Z,11.90
2023-02-14T12:11:29.975Z,11.90
2023-02-14T12:13:58.105Z,12.10
2023-02-14T12:16:55.685Z,12.10
2023-02-14T12:19:44.759Z,12.20
2023-02-14T12:22:41.778Z,12.10
2023-02-14T12:25:33.320Z,12.10
2023-02-14T12:28:13.733Z,12.10
2023-02-14T12:30:41.308Z,12.10
2023-02-14T12:33:26.769Z,12.10
2023-02-14T12:36:11.663Z,12.10
2023-02-14T12:39:09.865Z,12.10
2023-02-14T12:41:54.998Z,12.20
2023-02-14T12:44:36.745Z,12.30
2023-02-14T12:47:33.786Z,12.40
2023-02-14T12:50:18.548Z,12.40
2023-02-14T12:53:04.090Z,12.50
2023-02-14T12:56:09.238Z,12.60
2023-02-14T12:59:14.862Z,12.70
2023-02-14T13:01:59.519Z,12.80
2023-02-14T13:04:40.841Z,12.80
2023-02-14T13:07:26.726Z,12.90
2023-02-14T13:10:24.788Z,12.90
2023-02-14T13:13:35.006Z,12.90
2023-02-14T13:16:17.866Z,12.80
2023-02-14T13:19:37.836Z,12.80
2023-02-14T13:22:06.962Z,12.70
2023-02-14T13:24:48.894Z,12.60
2023-02-14T13:27:23.324Z,12.50
2023-02-14T13:30:05.827Z,12.40
2023-02-14T13:32:36.062Z,12.40
2023-02-14T13:35:03.913Z,12.20
2023-02-14T13:37:37.820Z,12.10
2023-02-14T13:40:23.824Z,12.10
2023-02-14T13:42:53.413Z,12.00
2023-02-14T13:45:45.847Z,11.90
2023-02-14T13:48:22.400Z,11.90
2023-02-14T13:51:10.801Z,11.80
2023-02-14T13:53:46.657Z,11.70
2023-02-14T13:56:19.951Z,11.70
2023-02-14T13:58:56.360Z,11.60
2023-02-14T14:01:48.896Z,11.60
2023-02-14T14:04:31.908Z,11.50
2023-02-14T14:07:11.878Z,11.40
2023-02-14T14:09:45.450Z,11.30
2023-02-14T14:12:34.230Z,11.30
2023-02-14T14:15:07.009Z,11.40
2023-02-14T14:17:43.941Z,11.30
2023-02-14T14:20:16.815Z,11.30
2023-02-14T14:22:55.952Z,11.30
2023-02-14T14:25:33.430Z,11.30
2023-02-14T14:28:07.865Z,11.20
2023-02-14T14:30:35.073Z,11.20
2023-02-14T14:33:37.899Z,11.10
2023-02-14T14:36:07.937Z,11.10
2023-02-14T14:38:53.994Z,11.10
2023-02-14T14:41:38.105Z,11.00
2023-02-14T14:44:06.733Z,11.00
2023-02-14T14:46:33.939Z,11.00
2023-02-14T14:49:08.950Z,10.90
2023-02-14T14:51:36.174Z,10.90
2023-02-14T14:54:13.983Z,10.90
2023-02-14T14:57:01.542Z,10.90
2023-02-14T14:59:41.946Z,10.90
2023-02-14T15:02:24.456Z,10.90
2023-02-14T15:04:58.056Z,10.90
2023-02-14T15:07:39.941Z,10.90
2023-02-14T15:10:34.984Z,10.90
2023-02-14T15:13:26.997Z,10.90
2023-02-14T15:16:03.492Z,10.80
2023-02-14T15:18:30.810Z,10.80
2023-02-14T15:21:06.025Z,10.80
2023-02-14T15:23:33.329Z,10.70
2023-02-14T15:26:07.997Z,10.70
2023-02-14T15:28:38.464Z,10.70
2023-02-14T15:31:13.099Z,10.70
2023-02-14T15:33:40.159Z,10.70
2023-02-14T15:36:23.012Z,10.70
2023-02-14T15:38:50.955Z,10.70
2023-02-14T15:41:20.021Z,10.70
2023-02-14T15:43:58.053Z,10.70
2023-02-14T15:46:26.485Z,10.70
2023-02-14T15:49:02.356Z,10.70
2023-02-14T15:51:32.697Z,10.60
2023-02-14T15:54:01.408Z,10.50
2023-02-14T15:56:43.094Z,10.40
2023-02-14T15:59:23.552Z,10.30
2023-02-14T16:02:10.172Z,10.30
2023-02-14T16:04:36.998Z,10.20
2023-02-14T16:07:06.839Z,10.20
2023-02-14T16:09:44.316Z,10.10
2023-02-14T16:12:32.144Z,10.00
2023-02-14T16:15:28.121Z,10.00
2023-02-14T16:18:07.906Z,9.90
2023-02-14T16:20:48.263Z,9.90
2023-02-14T16:23:25.906Z,9.90
2023-02-14T16:26:00.107Z,9.80
2023-02-14T16:28:37.093Z,9.60
2023-02-14T16:31:10.177Z,9.50
2023-02-14T16:33:46.111Z,9.40
2023-02-14T16:36:37.106Z,9.30
2023-02-14T16:39:05.581Z,9.10
2023-02-14T16:41:34.273Z,9.00
2023-02-14T16:44:08.170Z,8.90
2023-02-14T16:46:36.176Z,8.90
2023-02-14T16:49:10.143Z,8.80
2023-02-14T16:51:37.373Z,8.70
2023-02-14T16:54:06.873Z,8.60
2023-02-14T16:56:45.101Z,8.50
2023-02-14T16:59:12.077Z,8.50
2023-02-14T17:01:38.942Z,8.40
2023-02-14T17:04:12.231Z,8.30
2023-02-14T17:06:42.502Z,8.30
2023-02-14T17:09:20.148Z,8.30
2023-02-14T17:11:58.206Z,8.20
2023-02-14T17:14:30.049Z,8.10
2023-02-14T17:17:04.255Z,8.00
2023-02-14T17:19:41.176Z,7.90
2023-02-14T17:22:08.052Z,7.90
2023-02-14T17:24:35.817Z,7.80
2023-02-14T17:27:09.523Z,7.80
2023-02-14T17:29:36.332Z,7.70
2023-02-14T17:32:10.222Z,7.70
2023-02-14T17:34:37.097Z,7.60
2023-02-14T17:37:10.270Z,7.60
2023-02-14T17:39:37.046Z,7.50
2023-02-14T17:42:12.187Z,7.50
2023-02-14T17:44:46.207Z,7.40
2023-02-14T17:47:14.762Z,7.40
2023-02-14T17:49:48.251Z,7.30
2023-02-14T17:52:16.208Z,7.30
2023-02-14T17:54:43.670Z,7.30
2023-02-14T17:57:19.477Z,7.20
2023-02-14T17:59:53.240Z,7.20
2023-02-14T18:02:20.163Z,7.20
2023-02-14T18:04:48.362Z,7.10
2023-02-14T18:07:27.267Z,7.10
2023-02-14T18:09:54.100Z,7.10
2023-02-14T18:12:27.270Z,7.00
2023-02-14T18:15:02.269Z,7.00
2023-02-14T18:17:29.028Z,7.00
2023-02-14T18:20:02.280Z,6.90
2023-02-14T18:22:38.230Z,6.90
2023-02-14T18:25:09.973Z,6.90
2023-02-14T18:27:43.279Z,6.80
2023-02-14T18:30:17.390Z,6.80
2023-02-14T18:32:44.164Z,6.80
2023-02-14T18:35:17.352Z,6.70
2023-02-14T18:37:44.241Z,6.70
2023-02-14T18:40:16.328Z,6.70
2023-02-14T18:42:49.317Z,6.70
2023-02-14T18:45:23.340Z,6.70
2023-02-14T18:47:50.578Z,6.70
2023-02-14T18:50:24.316Z,6.70
2023-02-14T18:52:51.180Z,6.80
2023-02-14T18:55:24.301Z,6.70
2023-02-14T18:58:24.375Z,6.70
2023-02-14T19:00:58.450Z,6.70
2023-02-14T19:03:25.625Z,6.70
2023-02-14T19:06:00.418Z,6.70
2023-02-14T19:08:29.974Z,6.70
2023-02-14T19:11:03.485Z,6.70
2023-02-14T19:13:32.727Z,6.70
2023-02-14T19:16:06.444Z,6.60
2023-02-14T19:18:33.278Z,6.60
2023-02-14T19:21:22.394Z,6.60
2023-02-14T19:23:57.441Z,6.60
2023-02-14T19:26:33.481Z,6.50
2023-02-14T19:29:02.407Z,6.50
2023-02-14T19:31:36.668Z,6.40
2023-02-14T19:34:05.153Z,6.40
2023-02-14T19:36:39.473Z,6.40
2023-02-14T19:39:13.463Z,6.30
2023-02-14T19:41:47.687Z,6.30
2023-02-14T19:44:17.252Z,6.30
2023-02-14T19:46:52.486Z,6.30
2023-02-14T19:49:20.572Z,6.20
2023-02-14T19:51:55.564Z,6.20
2023-02-14T19:54:24.204Z,6.20
2023-02-14T19:57:00.510Z,6.10
2023-02-14T19:59:27.964Z,6.10
2023-02-14T20:02:02.738Z,6.10
2023-02-14T20:04:30.212Z,6.10
2023-02-14T20:07:04.577Z,6.00
2023-02-14T20:09:37.526Z,6.00
2023-02-14T20:12:11.547Z,6.00
2023-02-14T20:14:51.405Z,6.00
2023-02-14T20:17:19.423Z,6.00
2023-02-14T20:19:53.567Z,6.00
2023-02-14T20:22:23.112Z,6.10
2023-02-14T20:24:56.499Z,6.10
2023-02-14T20:27:25.542Z,6.10
2023-02-14T20:29:58.549Z,6.10
2023-02-14T20:32:25.319Z,6.10
2023-02-14T20:34:58.897Z,6.10
2023-02-14T20:37:25.961Z,6.10
2023-02-14T20:39:54.865Z,6.00
2023-02-14T20:42:28.548Z,6.00
2023-02-14T20:44:55.387Z,6.00
2023-02-14T20:47:22.194Z,6.00
2023-02-14T20:49:56.559Z,6.00
2023-02-14T20:52:23.424Z,6.00
2023-02-14T20:54:50.183Z,6.00
2023-02-14T20:57:23.617Z,6.00
2023-02-14T20:59:50.446Z,6.00
2023-02-14T21:02:23.600Z,6.00
2023-02-14T21:04:50.366Z,5.90
2023-02-14T21:07:24.581Z,5.90
2023-02-14T21:09:51.316Z,5.90
2023-02-14T21:12:24.621Z,5.90
2023-02-14T21:14:58.614Z,5.90
2023-02-14T21:17:31.590Z,5.80
2023-02-14T21:19:58.383Z,5.80
2023-02-14T21:22:38.586Z,5.80
2023-02-14T21:25:05.800Z,5.90
2023-02-14T21:27:39.650Z,5.90
2023-02-14T21:30:13.688Z,5.80
2023-02-14T21:32:40.491Z,5.80
2023-02-14T21:35:13.650Z,5.80
2023-02-14T21:37:40.396Z,5.80
2023-02-14T21:40:14.652Z,5.80
2023-02-14T21:42:48.620Z,5.80
2023-02-14T21:45:40.668Z,5.80
2023-02-14T21:48:32.633Z,5.80
2023-02-14T21:51:06.608Z,5.70
2023-02-14T21:53:34.117Z,5.70
2023-02-14T21:56:17.985Z,5.70
2023-02-14T21:58:51.663Z,5.70
2023-02-14T22:01:24.695Z,5.70
2023-02-14T22:03:58.635Z,5.60
2023-02-14T22:06:32.692Z,5.60
2023-02-14T22:09:09.713Z,5.60
2023-02-14T22:11:36.944Z,5.60
2023-02-14T22:14:04.125Z,5.50
2023-02-14T22:16:37.716Z,5.50
2023-02-14T22:19:12.732Z,5.50
2023-02-14T22:21:39.598Z,5.50
2023-02-14T22:24:06.438Z,5.50
2023-02-14T22:26:44.716Z,5.50
2023-02-14T22:29:12.751Z,5.50
2023-02-14T22:31:48.806Z,5.40
2023-02-14T22:34:24.773Z,5.40
2023-02-14T22:36:51.675Z,5.40
2023-02-14T22:39:18.615Z,5.40
2023-02-14T22:41:52.687Z,5.40
2023-02-14T22:44:19.428Z,5.30
2023-02-14T22:46:55.802Z,5.30
2023-02-14T22:49:22.626Z,5.30
2023-02-14T22:51:49.442Z,5.30
2023-02-14T22:54:23.731Z,5.20
2023-02-14T22:56:53.550Z,5.20
2023-02-14T22:59:34.772Z,5.10
2023-02-14T23:02:08.771Z,5.10
2023-02-14T23:04:50.759Z,5.10
2023-02-14T23:07:17.500Z,5.00
2023-02-14T23:09:50.789Z,5.00
2023-02-14T23:12:42.806Z,5.00
2023-02-14T23:15:29.172Z,4.90
2023-02-14T23:18:20.819Z,4.90
2023-02-14T23:21:06.202Z,4.90
2023-02-14T23:23:40.806Z,4.80
2023-02-14T23:26:07.606Z,4.80
2023-02-14T23:28:34.589Z,4.80
2023-02-14T23:31:08.882Z,4.80
2023-02-14T23:33:36.225Z,4.80
2023-02-14T23:36:04.339Z,4.80
2023-02-14T23:38:37.830Z,4.80
2023-02-14T23:41:30.272Z,4.80
2023-02-14T23:44:03.860Z,4.80
2023-02-14T23:46:31.943Z,4.70
2023-02-14T23:49:04.852Z,4.70
2023-02-14T23:51:37.858Z,4.70
2023-02-14T23:54:05.197Z,4.70
2023-02-14T23:56:39.869Z,4.70
2023-02-14T23:59:13.834Z,4.70
